sensor_id;sensor_type;location;lat;lon;timestamp;pressure;altitude;pressure_sealevel;temperature;humidity
44453;BME280;30155;52.164;21.236;2023-02-03T00:01:19;100870.00;;;0.17;85.40
44453;BME280;30155;52.164;21.236;2023-02-03T00:06:13;100882.39;;;0.16;85.77
44453;BME280;30155;52.164;21.236;2023-02-03T00:11:06;100896.50;;;0.12;85.60
44453;BME280;30155;52.164;21.236;2023-02-03T00:15:59;100890.80;;;0.09;85.70
44453;BME280;30155;52.164;21.236;2023-02-03T00:20:53;100886.25;;;0.01;85.49
44453;BME280;30155;52.164;21.236;2023-02-03T00:25:45;100873.50;;;-0.07;85.42
44453;BME280;30155;52.164;21.236;2023-02-03T00:30:38;100884.80;;;-0.14;85.72
44453;BME280;30155;52.164;21.236;2023-02-03T00:35:31;100882.53;;;-0.20;85.93
44453;BME280;30155;52.164;21.236;2023-02-03T00:40:26;100883.51;;;-0.24;85.78
44453;BME280;30155;52.164;21.236;2023-02-03T00:45:21;100883.94;;;-0.31;85.75
44453;BME280;30155;52.164;21.236;2023-02-03T00:50:13;100890.88;;;-0.40;85.65
44453;BME280;30155;52.164;21.236;2023-02-03T00:55:07;100888.01;;;-0.47;85.72
44453;BME280;30155;52.164;21.236;2023-02-03T01:00:00;100886.94;;;-0.53;85.90
44453;BME280;30155;52.164;21.236;2023-02-03T01:04:53;100888.64;;;-0.58;85.96
44453;BME280;30155;52.164;21.236;2023-02-03T01:09:46;100889.91;;;-0.63;85.82
44453;BME280;30155;52.164;21.236;2023-02-03T01:14:38;100891.50;;;-0.67;86.00
44453;BME280;30155;52.164;21.236;2023-02-03T01:19:31;100904.63;;;-0.69;86.08
44453;BME280;30155;52.164;21.236;2023-02-03T01:24:24;100905.98;;;-0.69;85.94
44453;BME280;30155;52.164;21.236;2023-02-03T01:29:17;100906.14;;;-0.69;86.10
44453;BME280;30155;52.164;21.236;2023-02-03T01:34:13;100901.21;;;-0.69;85.79
44453;BME280;30155;52.164;21.236;2023-02-03T01:39:07;100894.98;;;-0.71;85.79
44453;BME280;30155;52.164;21.236;2023-02-03T01:44:01;100896.77;;;-0.75;85.78
44453;BME280;30155;52.164;21.236;2023-02-03T01:53:52;100897.77;;;-0.86;85.51
44453;BME280;30155;52.164;21.236;2023-02-03T01:58:48;100894.27;;;-0.87;85.48
44453;BME280;30155;52.164;21.236;2023-02-03T02:03:47;100892.21;;;-0.87;85.50
44453;BME280;30155;52.164;21.236;2023-02-03T02:08:46;100889.09;;;-0.86;85.65
44453;BME280;30155;52.164;21.236;2023-02-03T02:13:42;100892.73;;;-0.80;85.27
44453;BME280;30155;52.164;21.236;2023-02-03T02:24:06;100890.20;;;-0.63;85.18
44453;BME280;30155;52.164;21.236;2023-02-03T02:39:24;100878.27;;;-0.58;83.47
44453;BME280;30155;52.164;21.236;2023-02-03T02:44:55;100880.84;;;-0.55;82.96
44453;BME280;30155;52.164;21.236;2023-02-03T02:50:10;100876.49;;;-0.54;82.93
44453;BME280;30155;52.164;21.236;2023-02-03T03:00:49;100871.02;;;-0.65;82.30
44453;BME280;30155;52.164;21.236;2023-02-03T03:05:54;100872.86;;;-0.68;82.55
44453;BME280;30155;52.164;21.236;2023-02-03T03:10:59;100874.16;;;-0.72;82.46
44453;BME280;30155;52.164;21.236;2023-02-03T03:15:56;100876.19;;;-0.78;82.48
44453;BME280;30155;52.164;21.236;2023-02-03T03:20:52;100875.16;;;-0.83;82.46
44453;BME280;30155;52.164;21.236;2023-02-03T03:26:03;100872.77;;;-0.88;82.37
44453;BME280;30155;52.164;21.236;2023-02-03T03:31:05;100870.19;;;-0.94;82.48
44453;BME280;30155;52.164;21.236;2023-02-03T03:36:08;100866.38;;;-1.00;82.73
44453;BME280;30155;52.164;21.236;2023-02-03T03:41:33;100868.72;;;-1.06;82.63
44453;BME280;30155;52.164;21.236;2023-02-03T03:46:38;100861.23;;;-1.11;82.64
44453;BME280;30155;52.164;21.236;2023-02-03T03:51:43;100857.92;;;-1.12;82.72
44453;BME280;30155;52.164;21.236;2023-02-03T04:01:47;100855.73;;;-1.06;82.75
44453;BME280;30155;52.164;21.236;2023-02-03T04:06:44;100862.02;;;-1.04;83.02
44453;BME280;30155;52.164;21.236;2023-02-03T04:11:44;100862.27;;;-1.03;83.05
44453;BME280;30155;52.164;21.236;2023-02-03T04:16:57;100860.33;;;-1.04;83.16
44453;BME280;30155;52.164;21.236;2023-02-03T04:21:51;100865.52;;;-1.08;83.16
44453;BME280;30155;52.164;21.236;2023-02-03T04:26:44;100864.24;;;-1.14;83.28
44453;BME280;30155;52.164;21.236;2023-02-03T04:31:40;100862.59;;;-1.24;83.20
44453;BME280;30155;52.164;21.236;2023-02-03T04:36:40;100864.48;;;-1.34;83.30
44453;BME280;30155;52.164;21.236;2023-02-03T04:41:33;100864.17;;;-1.46;83.40
44453;BME280;30155;52.164;21.236;2023-02-03T04:46:26;100868.33;;;-1.58;83.46
44453;BME280;30155;52.164;21.236;2023-02-03T04:51:22;100867.45;;;-1.68;83.65
44453;BME280;30155;52.164;21.236;2023-02-03T04:56:17;100863.66;;;-1.76;83.80
44453;BME280;30155;52.164;21.236;2023-02-03T05:01:12;100860.16;;;-1.83;83.91
44453;BME280;30155;52.164;21.236;2023-02-03T05:06:07;100862.58;;;-1.87;84.21
44453;BME280;30155;52.164;21.236;2023-02-03T05:11:10;100850.52;;;-1.92;84.33
44453;BME280;30155;52.164;21.236;2023-02-03T05:16:06;100848.75;;;-1.96;84.37
44453;BME280;30155;52.164;21.236;2023-02-03T05:21:02;100850.53;;;-2.00;84.47
44453;BME280;30155;52.164;21.236;2023-02-03T05:26:03;100846.17;;;-2.03;84.70
44453;BME280;30155;52.164;21.236;2023-02-03T05:31:02;100846.63;;;-2.07;84.77
44453;BME280;30155;52.164;21.236;2023-02-03T05:36:08;100845.51;;;-2.10;84.82
44453;BME280;30155;52.164;21.236;2023-02-03T05:41:01;100843.58;;;-2.14;84.93
44453;BME280;30155;52.164;21.236;2023-02-03T05:46:43;100842.97;;;-2.17;85.06
44453;BME280;30155;52.164;21.236;2023-02-03T05:52:07;100839.05;;;-2.20;85.10
44453;BME280;30155;52.164;21.236;2023-02-03T05:57:13;100836.66;;;-2.23;85.11
44453;BME280;30155;52.164;21.236;2023-02-03T06:02:08;100838.64;;;-2.26;85.18
44453;BME280;30155;52.164;21.236;2023-02-03T06:07:01;100834.56;;;-2.29;85.16
44453;BME280;30155;52.164;21.236;2023-02-03T06:11:54;100827.48;;;-2.31;85.11
44453;BME280;30155;52.164;21.236;2023-02-03T06:16:47;100827.11;;;-2.33;85.23
44453;BME280;30155;52.164;21.236;2023-02-03T06:21:40;100825.27;;;-2.33;85.38
44453;BME280;30155;52.164;21.236;2023-02-03T06:26:32;100821.61;;;-2.34;85.26
44453;BME280;30155;52.164;21.236;2023-02-03T06:31:25;100815.00;;;-2.37;84.96
44453;BME280;30155;52.164;21.236;2023-02-03T06:36:18;100812.70;;;-2.36;85.19
44453;BME280;30155;52.164;21.236;2023-02-03T06:41:11;100807.84;;;-2.32;85.34
44453;BME280;30155;52.164;21.236;2023-02-03T06:46:03;100794.13;;;-2.29;85.33
44453;BME280;30155;52.164;21.236;2023-02-03T06:50:56;100780.60;;;-2.23;85.52
44453;BME280;30155;52.164;21.236;2023-02-03T06:55:49;100771.61;;;-2.16;85.63
44453;BME280;30155;52.164;21.236;2023-02-03T07:00:42;100770.02;;;-2.07;85.56
44453;BME280;30155;52.164;21.236;2023-02-03T07:05:35;100765.16;;;-2.01;85.47
44453;BME280;30155;52.164;21.236;2023-02-03T07:10:28;100761.66;;;-1.95;85.39
44453;BME280;30155;52.164;21.236;2023-02-03T07:15:21;100749.18;;;-1.85;85.40
44453;BME280;30155;52.164;21.236;2023-02-03T07:20:14;100743.83;;;-1.74;85.38
44453;BME280;30155;52.164;21.236;2023-02-03T07:25:07;100733.22;;;-1.62;85.18
44453;BME280;30155;52.164;21.236;2023-02-03T07:30:00;100729.75;;;-1.50;85.02
44453;BME280;30155;52.164;21.236;2023-02-03T07:34:53;100727.00;;;-1.43;85.11
44453;BME280;30155;52.164;21.236;2023-02-03T07:39:45;100717.02;;;-1.34;84.96
44453;BME280;30155;52.164;21.236;2023-02-03T07:44:38;100708.34;;;-1.26;85.13
44453;BME280;30155;52.164;21.236;2023-02-03T07:49:31;100698.40;;;-1.14;84.88
44453;BME280;30155;52.164;21.236;2023-02-03T07:54:24;100687.88;;;-0.97;84.87
44453;BME280;30155;52.164;21.236;2023-02-03T07:59:17;100675.67;;;-0.86;84.61
44453;BME280;30155;52.164;21.236;2023-02-03T08:04:10;100664.02;;;-0.76;84.37
44453;BME280;30155;52.164;21.236;2023-02-03T08:09:07;100652.91;;;-0.65;84.29
44453;BME280;30155;52.164;21.236;2023-02-03T08:14:00;100649.61;;;-0.50;84.24
44453;BME280;30155;52.164;21.236;2023-02-03T08:18:53;100641.46;;;-0.29;83.68
44453;BME280;30155;52.164;21.236;2023-02-03T08:23:46;100633.21;;;-0.10;83.37
44453;BME280;30155;52.164;21.236;2023-02-03T08:28:39;100633.44;;;0.09;82.97
44453;BME280;30155;52.164;21.236;2023-02-03T08:33:32;100627.44;;;0.32;82.23
44453;BME280;30155;52.164;21.236;2023-02-03T08:38:43;100619.77;;;0.57;81.60
44453;BME280;30155;52.164;21.236;2023-02-03T08:43:37;100610.35;;;0.81;81.06
44453;BME280;30155;52.164;21.236;2023-02-03T08:48:30;100602.65;;;0.96;80.62
44453;BME280;30155;52.164;21.236;2023-02-03T08:53:23;100590.60;;;1.14;80.43
44453;BME280;30155;52.164;21.236;2023-02-03T08:58:16;100589.32;;;1.29;79.86
44453;BME280;30155;52.164;21.236;2023-02-03T09:03:09;100580.23;;;1.34;79.03
44453;BME280;30155;52.164;21.236;2023-02-03T09:08:02;100569.30;;;1.44;79.10
44453;BME280;30155;52.164;21.236;2023-02-03T09:12:55;100558.62;;;1.56;79.18
44453;BME280;30155;52.164;21.236;2023-02-03T09:17:48;100547.42;;;1.68;78.72
44453;BME280;30155;52.164;21.236;2023-02-03T09:22:42;100529.45;;;1.95;78.25
44453;BME280;30155;52.164;21.236;2023-02-03T09:27:35;100523.39;;;2.11;77.29
44453;BME280;30155;52.164;21.236;2023-02-03T09:32:28;100523.21;;;2.11;77.07
44453;BME280;30155;52.164;21.236;2023-02-03T09:37:20;100514.84;;;2.15;76.29
44453;BME280;30155;52.164;21.236;2023-02-03T09:47:39;100494.96;;;2.33;75.75
44453;BME280;30155;52.164;21.236;2023-02-03T09:52:35;100480.90;;;2.50;75.56
44453;BME280;30155;52.164;21.236;2023-02-03T09:57:34;100467.13;;;2.60;75.43
44453;BME280;30155;52.164;21.236;2023-02-03T10:13:37;100422.66;;;3.04;73.57
44453;BME280;30155;52.164;21.236;2023-02-03T10:18:08;100409.12;;;3.49;72.07
44453;BME280;30155;52.164;21.236;2023-02-03T10:23:09;100385.18;;;3.47;71.74
44453;BME280;30155;52.164;21.236;2023-02-03T10:28:11;100381.41;;;3.42;71.29
44453;BME280;30155;52.164;21.236;2023-02-03T10:33:15;100366.05;;;3.53;70.59
44453;BME280;30155;52.164;21.236;2023-02-03T10:38:14;100358.62;;;3.51;70.63
44453;BME280;30155;52.164;21.236;2023-02-03T10:43:10;100351.50;;;3.15;70.52
44453;BME280;30155;52.164;21.236;2023-02-03T10:48:21;100342.50;;;2.83;71.23
44453;BME280;30155;52.164;21.236;2023-02-03T10:53:34;100320.11;;;2.63;71.29
44453;BME280;30155;52.164;21.236;2023-02-03T10:58:29;100303.81;;;2.62;70.64
44453;BME280;30155;52.164;21.236;2023-02-03T11:03:30;100277.83;;;2.84;70.76
44453;BME280;30155;52.164;21.236;2023-02-03T11:08:29;100258.50;;;2.89;70.18
44453;BME280;30155;52.164;21.236;2023-02-03T11:13:24;100245.48;;;3.10;70.55
44453;BME280;30155;52.164;21.236;2023-02-03T11:18:54;100226.20;;;3.38;69.97
44453;BME280;30155;52.164;21.236;2023-02-03T11:23:56;100206.41;;;3.50;69.31
44453;BME280;30155;52.164;21.236;2023-02-03T11:28:55;100191.59;;;3.47;69.63
44453;BME280;30155;52.164;21.236;2023-02-03T11:34:23;100179.23;;;3.33;69.24
44453;BME280;30155;52.164;21.236;2023-02-03T11:39:23;100160.72;;;3.10;68.89
44453;BME280;30155;52.164;21.236;2023-02-03T11:44:25;100148.43;;;3.02;69.64
44453;BME280;30155;52.164;21.236;2023-02-03T11:55:02;100110.73;;;2.74;69.14
44453;BME280;30155;52.164;21.236;2023-02-03T12:00:10;100088.02;;;2.58;69.72
44453;BME280;30155;52.164;21.236;2023-02-03T12:21:08;100031.27;;;2.06;69.86
44453;BME280;30155;52.164;21.236;2023-02-03T12:26:10;100025.91;;;1.97;69.76
44453;BME280;30155;52.164;21.236;2023-02-03T12:32:01;100018.14;;;1.94;69.78
44453;BME280;30155;52.164;21.236;2023-02-03T12:36:27;100008.95;;;2.00;70.19
44453;BME280;30155;52.164;21.236;2023-02-03T12:41:35;99997.95;;;2.02;69.77
44453;BME280;30155;52.164;21.236;2023-02-03T12:46:33;99987.34;;;1.98;69.75
44453;BME280;30155;52.164;21.236;2023-02-03T12:51:42;99977.46;;;1.86;69.77
44453;BME280;30155;52.164;21.236;2023-02-03T12:56:41;99967.83;;;1.75;69.83
44453;BME280;30155;52.164;21.236;2023-02-03T13:01:57;99952.69;;;1.68;69.82
44453;BME280;30155;52.164;21.236;2023-02-03T13:11:51;99913.21;;;1.64;70.01
44453;BME280;30155;52.164;21.236;2023-02-03T13:16:50;99897.71;;;1.61;70.18
44453;BME280;30155;52.164;21.236;2023-02-03T13:21:49;99872.20;;;1.55;70.28
44453;BME280;30155;52.164;21.236;2023-02-03T13:32:03;99843.55;;;1.43;69.90
44453;BME280;30155;52.164;21.236;2023-02-03T13:42:57;99808.11;;;1.32;70.74
44453;BME280;30155;52.164;21.236;2023-02-03T13:47:56;99792.98;;;1.26;70.94
44453;BME280;30155;52.164;21.236;2023-02-03T13:53:03;99773.45;;;1.20;71.49
44453;BME280;30155;52.164;21.236;2023-02-03T13:57:58;99762.96;;;1.13;71.53
44453;BME280;30155;52.164;21.236;2023-02-03T14:02:53;99752.39;;;1.04;71.81
44453;BME280;30155;52.164;21.236;2023-02-03T14:07:47;99743.05;;;0.93;71.86
44453;BME280;30155;52.164;21.236;2023-02-03T14:22:38;99725.59;;;0.62;73.62
44453;BME280;30155;52.164;21.236;2023-02-03T14:27:32;99718.77;;;0.49;74.32
44453;BME280;30155;52.164;21.236;2023-02-03T14:32:48;99713.07;;;0.35;74.99
44453;BME280;30155;52.164;21.236;2023-02-03T14:37:51;99702.55;;;0.27;75.96
44453;BME280;30155;52.164;21.236;2023-02-03T14:58:22;99668.23;;;0.02;77.60
44453;BME280;30155;52.164;21.236;2023-02-03T15:03:18;99665.08;;;-0.05;78.08
44453;BME280;30155;52.164;21.236;2023-02-03T15:13:30;99655.27;;;-0.15;78.85
44453;BME280;30155;52.164;21.236;2023-02-03T15:18:31;99641.33;;;-0.18;79.28
44453;BME280;30155;52.164;21.236;2023-02-03T15:23:29;99629.20;;;-0.23;79.59
44453;BME280;30155;52.164;21.236;2023-02-03T15:28:24;99619.80;;;-0.24;79.73
44453;BME280;30155;52.164;21.236;2023-02-03T15:33:18;99618.34;;;-0.22;80.32
44453;BME280;30155;52.164;21.236;2023-02-03T15:38:20;99610.63;;;-0.23;80.28
44453;BME280;30155;52.164;21.236;2023-02-03T15:43:20;99606.50;;;-0.24;80.42
44453;BME280;30155;52.164;21.236;2023-02-03T15:53:33;99593.91;;;-0.28;80.80
44453;BME280;30155;52.164;21.236;2023-02-03T15:58:44;99581.30;;;-0.28;80.91
44453;BME280;30155;52.164;21.236;2023-02-03T16:03:49;99578.20;;;-0.29;80.95
44453;BME280;30155;52.164;21.236;2023-02-03T16:08:45;99566.24;;;-0.30;81.26
44453;BME280;30155;52.164;21.236;2023-02-03T16:13:42;99560.46;;;-0.29;81.69
44453;BME280;30155;52.164;21.236;2023-02-03T16:18:36;99556.32;;;-0.31;81.65
44453;BME280;30155;52.164;21.236;2023-02-03T16:23:29;99552.85;;;-0.32;81.76
44453;BME280;30155;52.164;21.236;2023-02-03T16:28:21;99539.46;;;-0.31;82.00
44453;BME280;30155;52.164;21.236;2023-02-03T16:33:32;99528.51;;;-0.32;82.05
44453;BME280;30155;52.164;21.236;2023-02-03T16:38:49;99523.84;;;-0.34;82.28
44453;BME280;30155;52.164;21.236;2023-02-03T16:44:00;99513.79;;;-0.34;82.62
44453;BME280;30155;52.164;21.236;2023-02-03T16:49:11;99510.62;;;-0.36;82.84
44453;BME280;30155;52.164;21.236;2023-02-03T16:54:21;99499.55;;;-0.36;83.08
44453;BME280;30155;52.164;21.236;2023-02-03T16:59:14;99481.73;;;-0.35;82.92
44453;BME280;30155;52.164;21.236;2023-02-03T17:04:07;99482.77;;;-0.35;83.10
44453;BME280;30155;52.164;21.236;2023-02-03T17:09:01;99490.08;;;-0.35;83.25
44453;BME280;30155;52.164;21.236;2023-02-03T17:13:54;99490.98;;;-0.34;83.21
44453;BME280;30155;52.164;21.236;2023-02-03T17:18:49;99488.80;;;-0.33;83.11
44453;BME280;30155;52.164;21.236;2023-02-03T17:23:42;99484.38;;;-0.32;83.12
44453;BME280;30155;52.164;21.236;2023-02-03T17:28:37;99483.73;;;-0.32;83.39
44453;BME280;30155;52.164;21.236;2023-02-03T17:33:31;99482.20;;;-0.32;83.42
44453;BME280;30155;52.164;21.236;2023-02-03T17:38:25;99484.48;;;-0.30;83.45
44453;BME280;30155;52.164;21.236;2023-02-03T17:43:18;99479.34;;;-0.31;83.49
44453;BME280;30155;52.164;21.236;2023-02-03T17:48:28;99485.29;;;-0.31;83.85
44453;BME280;30155;52.164;21.236;2023-02-03T17:53:39;99494.52;;;-0.31;83.77
44453;BME280;30155;52.164;21.236;2023-02-03T17:58:31;99494.52;;;-0.31;83.78
44453;BME280;30155;52.164;21.236;2023-02-03T18:03:24;99505.14;;;-0.29;83.82
44453;BME280;30155;52.164;21.236;2023-02-03T18:08:17;99516.36;;;-0.29;83.76
44453;BME280;30155;52.164;21.236;2023-02-03T18:13:14;99519.02;;;-0.27;83.89
44453;BME280;30155;52.164;21.236;2023-02-03T18:18:08;99515.13;;;-0.26;84.06
44453;BME280;30155;52.164;21.236;2023-02-03T18:23:01;99516.36;;;-0.25;84.10
44453;BME280;30155;52.164;21.236;2023-02-03T18:27:54;99521.25;;;-0.26;84.09
44453;BME280;30155;52.164;21.236;2023-02-03T18:32:50;99526.84;;;-0.27;83.99
44453;BME280;30155;52.164;21.236;2023-02-03T18:37:43;99530.08;;;-0.27;83.97
44453;BME280;30155;52.164;21.236;2023-02-03T18:42:36;99527.50;;;-0.28;84.06
44453;BME280;30155;52.164;21.236;2023-02-03T18:47:29;99533.48;;;-0.27;84.24
44453;BME280;30155;52.164;21.236;2023-02-03T18:52:22;99537.43;;;-0.26;84.33
44453;BME280;30155;52.164;21.236;2023-02-03T18:57:15;99549.20;;;-0.26;84.19
44453;BME280;30155;52.164;21.236;2023-02-03T19:02:09;99554.61;;;-0.27;84.20
44453;BME280;30155;52.164;21.236;2023-02-03T19:07:02;99551.41;;;-0.26;84.37
44453;BME280;30155;52.164;21.236;2023-02-03T19:11:55;99552.39;;;-0.27;84.19
44453;BME280;30155;52.164;21.236;2023-02-03T19:16:50;99554.38;;;-0.28;84.26
44453;BME280;30155;52.164;21.236;2023-02-03T19:21:43;99553.63;;;-0.30;84.17
44453;BME280;30155;52.164;21.236;2023-02-03T19:26:36;99551.98;;;-0.33;84.25
44453;BME280;30155;52.164;21.236;2023-02-03T19:31:30;99555.85;;;-0.34;84.23
44453;BME280;30155;52.164;21.236;2023-02-03T19:36:23;99546.44;;;-0.35;84.39
44453;BME280;30155;52.164;21.236;2023-02-03T19:41:16;99549.35;;;-0.34;84.59
44453;BME280;30155;52.164;21.236;2023-02-03T19:46:09;99551.40;;;-0.34;84.27
44453;BME280;30155;52.164;21.236;2023-02-03T19:51:01;99555.59;;;-0.36;84.26
44453;BME280;30155;52.164;21.236;2023-02-03T19:55:54;99550.30;;;-0.36;84.38
44453;BME280;30155;52.164;21.236;2023-02-03T20:00:47;99543.48;;;-0.36;84.30
44453;BME280;30155;52.164;21.236;2023-02-03T20:05:40;99552.50;;;-0.37;84.34
44453;BME280;30155;52.164;21.236;2023-02-03T20:10:33;99568.18;;;-0.36;84.29
44453;BME280;30155;52.164;21.236;2023-02-03T20:15:26;99571.56;;;-0.37;84.44
44453;BME280;30155;52.164;21.236;2023-02-03T20:20:19;99574.10;;;-0.37;84.35
44453;BME280;30155;52.164;21.236;2023-02-03T20:25:12;99571.20;;;-0.37;84.44
44453;BME280;30155;52.164;21.236;2023-02-03T20:30:05;99575.81;;;-0.37;84.53
44453;BME280;30155;52.164;21.236;2023-02-03T20:34:59;99595.23;;;-0.37;84.33
44453;BME280;30155;52.164;21.236;2023-02-03T20:39:54;99591.27;;;-0.34;84.41
44453;BME280;30155;52.164;21.236;2023-02-03T20:44:47;99596.42;;;-0.33;84.61
44453;BME280;30155;52.164;21.236;2023-02-03T20:49:40;99602.73;;;-0.33;84.44
44453;BME280;30155;52.164;21.236;2023-02-03T20:54:33;99621.61;;;-0.33;84.27
44453;BME280;30155;52.164;21.236;2023-02-03T20:59:25;99634.52;;;-0.33;84.50
44453;BME280;30155;52.164;21.236;2023-02-03T21:04:18;99620.34;;;-0.35;84.33
44453;BME280;30155;52.164;21.236;2023-02-03T21:09:37;99620.85;;;-0.35;84.56
44453;BME280;30155;52.164;21.236;2023-02-03T21:14:38;99621.02;;;-0.35;84.34
44453;BME280;30155;52.164;21.236;2023-02-03T21:19:32;99627.90;;;-0.33;84.51
44453;BME280;30155;52.164;21.236;2023-02-03T21:24:32;99632.52;;;-0.32;84.28
44453;BME280;30155;52.164;21.236;2023-02-03T21:29:34;99652.11;;;-0.32;84.25
44453;BME280;30155;52.164;21.236;2023-02-03T21:34:32;99659.45;;;-0.32;84.23
44453;BME280;30155;52.164;21.236;2023-02-03T21:39:31;99661.39;;;-0.34;84.50
44453;BME280;30155;52.164;21.236;2023-02-03T21:44:32;99671.20;;;-0.36;84.40
44453;BME280;30155;52.164;21.236;2023-02-03T21:49:27;99670.98;;;-0.37;84.44
44453;BME280;30155;52.164;21.236;2023-02-03T21:54:27;99681.74;;;-0.41;84.31
44453;BME280;30155;52.164;21.236;2023-02-03T21:59:24;99689.14;;;-0.43;84.33
44453;BME280;30155;52.164;21.236;2023-02-03T22:04:20;99684.30;;;-0.44;84.40
44453;BME280;30155;52.164;21.236;2023-02-03T22:09:18;99706.96;;;-0.48;84.15
44453;BME280;30155;52.164;21.236;2023-02-03T22:14:12;99721.36;;;-0.50;84.32
44453;BME280;30155;52.164;21.236;2023-02-03T22:19:07;99716.85;;;-0.51;84.36
44453;BME280;30155;52.164;21.236;2023-02-03T22:24:01;99727.48;;;-0.53;84.44
44453;BME280;30155;52.164;21.236;2023-02-03T22:28:53;99743.03;;;-0.56;84.30
44453;BME280;30155;52.164;21.236;2023-02-03T22:33:47;99740.96;;;-0.60;84.33
44453;BME280;30155;52.164;21.236;2023-02-03T22:38:41;99734.66;;;-0.64;84.36
44453;BME280;30155;52.164;21.236;2023-02-03T22:43:34;99750.19;;;-0.66;84.46
44453;BME280;30155;52.164;21.236;2023-02-03T22:48:27;99766.59;;;-0.69;84.40
44453;BME280;30155;52.164;21.236;2023-02-03T22:53:20;99765.59;;;-0.72;84.40
44453;BME280;30155;52.164;21.236;2023-02-03T22:58:13;99765.25;;;-0.75;84.48
44453;BME280;30155;52.164;21.236;2023-02-03T23:03:07;99777.52;;;-0.79;84.66
44453;BME280;30155;52.164;21.236;2023-02-03T23:08:00;99785.23;;;-0.82;84.63
44453;BME280;30155;52.164;21.236;2023-02-03T23:12:54;99793.87;;;-0.83;84.73
44453;BME280;30155;52.164;21.236;2023-02-03T23:17:47;99792.55;;;-0.85;84.73
44453;BME280;30155;52.164;21.236;2023-02-03T23:22:40;99793.91;;;-0.89;84.85
44453;BME280;30155;52.164;21.236;2023-02-03T23:27:33;99798.20;;;-0.91;84.97
44453;BME280;30155;52.164;21.236;2023-02-03T23:32:26;99807.63;;;-0.94;85.12
44453;BME280;30155;52.164;21.236;2023-02-03T23:37:19;99820.81;;;-0.95;84.98
44453;BME280;30155;52.164;21.236;2023-02-03T23:42:13;99841.37;;;-0.99;84.91
44453;BME280;30155;52.164;21.236;2023-02-03T23:47:06;99864.35;;;-1.02;85.21
44453;BME280;30155;52.164;21.236;2023-02-03T23:51:58;99876.88;;;-1.04;85.12
44453;BME280;30155;52.164;21.236;2023-02-03T23:56:51;99889.69;;;-1.06;85.40
